Time;durP1;ratioP1;P1;durP2;ratioP2;P2;SDS_P1;SDS_P2;PMS_P1;PMS_P2;Temp;Humidity;BMP_temperature;BMP_pressure;BME280_temperature;BME280_humidity;BME280_pressure;Samples;Min_cycle;Max_cycle;Signal;HPM_P1;HPM_P2
2023/09/26 00:00:51;;;;;;;;;;;;;;;24.06;37.92;99042.28;5015403;28;19917;-81
2023/09/26 00:03:17;;;;;;;;;;;;;;;24.02;38.18;99040.00;5031898;28;19995;-81
2023/09/26 00:05:42;;;;;;;;;;;;;;;24.01;38.42;99037.53;5016052;28;19921;-81
2023/09/26 00:08:08;;;;;;;;;;;;;;;23.98;38.72;99037.91;5032017;28;19924;-81
2023/09/26 00:10:33;;;;;;;;;;;;;;;23.96;38.72;99034.63;5031981;28;19926;-80
2023/09/26 00:12:58;;;;;;;;;;;;;;;24.00;38.86;99033.19;5029693;28;19917;-81
2023/09/26 00:15:24;;;;;;;;;;;;;;;23.93;39.44;99032.34;5031025;28;19917;-80
2023/09/26 00:17:50;;;;;;;;;;;;;;;23.92;39.40;99030.69;5033184;28;19917;-80
2023/09/26 00:20:26;;;;;;;;;;;;;;;23.94;39.52;99032.16;5035009;28;20300;-78
2023/09/26 00:22:53;;;;;;;;;;;;;;;23.97;39.82;99028.25;5019791;28;20376;-78
2023/09/26 00:25:18;;;;;;;;;;;;;;;24.00;39.93;99025.19;5034462;28;20012;-78
2023/09/26 00:27:43;;;;;;;;;;;;;;;23.97;40.03;99023.78;5033680;28;20012;-78
2023/09/26 00:30:09;;;;;;;;;;;;;;;24.03;39.93;99022.94;5033513;28;19923;-78
2023/09/26 00:32:36;;;;;;;;;;;;;;;24.04;39.99;99023.81;5033812;28;20031;-78
2023/09/26 00:35:02;;;;;;;;;;;;;;;24.06;40.01;99026.25;5033766;28;19924;-78
2023/09/26 00:37:27;;;;;;;;;;;;;;;24.07;39.94;99017.22;5034120;28;19917;-79
2023/09/26 00:39:53;;;;;;;;;;;;;;;24.08;40.11;99013.56;5033842;28;19917;-78
2023/09/26 00:42:18;;;;;;;;;;;;;;;24.07;40.13;99012.75;5033149;28;19924;-80
2023/09/26 00:44:43;;;;;;;;;;;;;;;24.07;40.13;99014.56;5034729;28;20012;-78
2023/09/26 00:47:09;;;;;;;;;;;;;;;24.06;39.90;99026.25;5034241;28;20376;-78
2023/09/26 00:49:34;;;;;;;;;;;;;;;24.05;40.12;99014.75;5017597;28;20415;-77
2023/09/26 00:52:01;;;;;;;;;;;;;;;24.06;40.08;99013.75;5034624;28;20059;-79
2023/09/26 00:54:26;;;;;;;;;;;;;;;24.06;40.25;99012.94;5033072;28;19978;-78
2023/09/26 00:56:52;;;;;;;;;;;;;;;24.02;40.22;99013.31;5034063;28;19921;-78
2023/09/26 00:59:17;;;;;;;;;;;;;;;24.02;40.14;99013.31;5033647;28;19925;-78
2023/09/26 01:01:45;;;;;;;;;;;;;;;24.06;40.11;99011.09;5032832;28;19968;-79
2023/09/26 01:04:10;;;;;;;;;;;;;;;24.07;40.13;99007.41;5033415;28;19917;-78
2023/09/26 01:06:36;;;;;;;;;;;;;;;24.05;40.09;99000.63;5033413;28;19921;-79
2023/09/26 01:09:02;;;;;;;;;;;;;;;24.09;40.16;99005.34;5033572;28;19925;-79
2023/09/26 01:11:27;;;;;;;;;;;;;;;24.11;40.08;99002.50;5033084;28;19925;-78
2023/09/26 01:13:52;;;;;;;;;;;;;;;24.12;40.17;99004.97;5033692;28;19982;-78
2023/09/26 01:16:18;;;;;;;;;;;;;;;24.16;40.09;98995.56;5034362;28;19923;-78
2023/09/26 01:18:44;;;;;;;;;;;;;;;24.17;40.19;99002.50;5033331;28;19921;-77
2023/09/26 01:21:09;;;;;;;;;;;;;;;24.15;40.23;99003.75;5034877;28;19924;-77
2023/09/26 01:23:35;;;;;;;;;;;;;;;24.08;40.17;98995.69;5032410;28;19924;-77
2023/09/26 01:26:01;;;;;;;;;;;;;;;24.07;40.33;98998.56;5016350;28;19921;-79
2023/09/26 01:28:26;;;;;;;;;;;;;;;24.09;40.18;98993.88;5033571;28;20000;-77
2023/09/26 01:30:51;;;;;;;;;;;;;;;24.10;40.21;98991.00;5033255;28;19936;-77
2023/09/26 01:33:19;;;;;;;;;;;;;;;24.06;40.24;98999.59;5033352;28;19971;-76
2023/09/26 01:35:44;;;;;;;;;;;;;;;24.03;40.32;98996.28;5032869;28;19917;-77
2023/09/26 01:38:09;;;;;;;;;;;;;;;23.99;40.42;99000.38;5033317;28;20015;-77
2023/09/26 01:40:35;;;;;;;;;;;;;;;23.99;40.51;98995.06;5033100;28;19917;-78
2023/09/26 01:43:00;;;;;;;;;;;;;;;23.93;40.67;98995.84;5034421;28;19924;-78
2023/09/26 01:45:26;;;;;;;;;;;;;;;23.87;40.81;99007.28;5034626;28;19925;-78
2023/09/26 01:47:51;;;;;;;;;;;;;;;23.88;40.71;99008.94;5034446;28;19924;-78
2023/09/26 01:50:16;;;;;;;;;;;;;;;23.77;41.02;99002.28;5033302;28;20313;-78
2023/09/26 01:52:42;;;;;;;;;;;;;;;23.79;41.18;99005.56;5033237;28;20020;-78
2023/09/26 01:55:08;;;;;;;;;;;;;;;23.83;41.07;99000.66;5033062;28;20021;-78
2023/09/26 01:57:33;;;;;;;;;;;;;;;23.86;41.00;99002.97;5033121;28;19924;-78
2023/09/26 02:00:10;;;;;;;;;;;;;;;23.82;41.47;98999.03;5033142;28;19917;-78
2023/09/26 02:02:35;;;;;;;;;;;;;;;23.80;41.56;99001.09;5017687;28;19917;-77
2023/09/26 02:05:01;;;;;;;;;;;;;;;23.77;41.62;99001.47;5034395;28;19924;-77
2023/09/26 02:07:26;;;;;;;;;;;;;;;23.80;41.46;98998.41;5034320;28;19925;-77
2023/09/26 02:09:51;;;;;;;;;;;;;;;23.75;41.67;98998.16;5033985;28;20410;-77
2023/09/26 02:12:16;;;;;;;;;;;;;;;23.72;41.90;98993.22;5034461;28;19977;-77
2023/09/26 02:14:42;;;;;;;;;;;;;;;23.75;41.73;98996.34;5033954;28;19917;-77
2023/09/26 02:17:07;;;;;;;;;;;;;;;23.77;41.95;99001.47;5032807;28;20400;-78
2023/09/26 02:19:34;;;;;;;;;;;;;;;23.73;42.04;99008.22;5032742;28;19923;-78
2023/09/26 02:21:59;;;;;;;;;;;;;;;23.72;42.22;99010.06;5033843;28;20012;-78
2023/09/26 02:24:24;;;;;;;;;;;;;;;23.70;42.22;99005.94;5016153;28;19924;-77
2023/09/26 02:26:49;;;;;;;;;;;;;;;23.62;42.63;99009.56;5033772;28;19924;-77
2023/09/26 02:29:15;;;;;;;;;;;;;;;23.64;42.78;99000.38;5015995;28;19917;-77
2023/09/26 02:31:40;;;;;;;;;;;;;;;23.65;42.55;98998.53;5016361;28;19952;-78
2023/09/26 02:34:06;;;;;;;;;;;;;;;23.66;42.66;98995.66;5031866;28;19971;-79
2023/09/26 02:36:31;;;;;;;;;;;;;;;23.58;42.79;99005.66;5033536;28;19917;-77
2023/09/26 02:38:57;;;;;;;;;;;;;;;23.56;43.03;99003.19;5031447;28;20290;-77
2023/09/26 02:41:22;;;;;;;;;;;;;;;23.55;43.00;99016.72;5033359;28;19917;-77
2023/09/26 02:43:52;;;;;;;;;;;;;;;23.54;43.12;99010.53;5032483;28;19925;-77
2023/09/26 02:46:17;;;;;;;;;;;;;;;23.56;43.17;99008.53;5032258;28;20301;-77
2023/09/26 02:48:42;;;;;;;;;;;;;;;23.57;43.28;99012.00;5033457;28;20389;-77
2023/09/26 02:51:08;;;;;;;;;;;;;;;23.56;43.47;99013.84;5032381;28;20004;-77
2023/09/26 02:53:33;;;;;;;;;;;;;;;23.56;43.37;99018.34;5014451;28;20281;-77
2023/09/26 02:55:58;;;;;;;;;;;;;;;23.45;43.76;99019.69;5015691;28;20012;-77
2023/09/26 02:58:24;;;;;;;;;;;;;;;23.52;43.30;99015.25;5033553;28;20368;-77
2023/09/26 03:00:50;;;;;;;;;;;;;;;23.44;43.87;99018.06;5031784;28;20377;-76
2023/09/26 03:03:15;;;;;;;;;;;;;;;23.47;43.70;99015.81;5032691;28;20610;-77
2023/09/26 03:05:47;;;;;;;;;;;;;;;23.51;43.59;99016.25;5015466;28;19967;-77
2023/09/26 03:08:13;;;;;;;;;;;;;;;23.50;43.68;99017.28;5015307;28;19932;-76
2023/09/26 03:10:39;;;;;;;;;;;;;;;23.48;43.59;99013.97;5032948;28;19930;-79
2023/09/26 03:13:05;;;;;;;;;;;;;;;23.46;43.92;99013.34;5032167;28;19917;-78
2023/09/26 03:15:30;;;;;;;;;;;;;;;23.47;43.81;99015.81;5032808;28;19917;-79
2023/09/26 03:17:55;;;;;;;;;;;;;;;23.52;43.91;99014.44;5015229;28;20376;-79
2023/09/26 03:20:21;;;;;;;;;;;;;;;23.49;43.71;99020.97;5032661;28;19924;-78
2023/09/26 03:22:46;;;;;;;;;;;;;;;23.52;43.75;99025.91;5031997;28;19921;-81
2023/09/26 03:25:11;;;;;;;;;;;;;;;23.54;43.90;99017.72;5013179;28;20380;-79
2023/09/26 03:27:37;;;;;;;;;;;;;;;23.54;43.78;99021.19;5015179;28;19917;-77
2023/09/26 03:30:02;;;;;;;;;;;;;;;23.51;44.00;99020.78;5030058;28;19956;-78
2023/09/26 03:32:28;;;;;;;;;;;;;;;23.50;44.23;99022.63;5014724;28;20308;-78
2023/09/26 03:34:53;;;;;;;;;;;;;;;23.55;43.88;99025.50;5031011;28;19967;-77
2023/09/26 03:37:18;;;;;;;;;;;;;;;23.68;44.40;99019.44;5031115;28;19924;-75
2023/09/26 03:39:46;;;;;;;;;;;;;;;23.77;45.26;99014.81;5030614;28;20004;-79
2023/09/26 03:42:12;;;;;;;;;;;;;;;23.91;45.12;99021.03;5014909;28;19928;-78
2023/09/26 03:44:37;;;;;;;;;;;;;;;24.03;44.99;99022.13;5031886;28;19917;-75
2023/09/26 03:47:02;;;;;;;;;;;;;;;24.13;45.08;99024.44;5014883;28;19917;-78
2023/09/26 03:49:27;;;;;;;;;;;;;;;24.18;44.66;99030.03;5032540;28;20288;-77
2023/09/26 03:51:53;;;;;;;;;;;;;;;24.24;44.51;99031.88;5019020;28;20055;-77
2023/09/26 03:54:19;;;;;;;;;;;;;;;24.29;44.40;99031.28;5035716;28;19917;-77
2023/09/26 03:56:45;;;;;;;;;;;;;;;24.35;43.91;99025.16;5035471;28;20376;-78
2023/09/26 03:59:12;;;;;;;;;;;;;;;24.45;44.17;99020.28;5036335;28;20011;-78
2023/09/26 04:01:37;;;;;;;;;;;;;;;24.49;43.85;99026.03;5034869;28;19945;-77
2023/09/26 04:04:03;;;;;;;;;;;;;;;24.53;43.69;99027.28;5035273;28;19967;-78
2023/09/26 04:06:30;;;;;;;;;;;;;;;24.61;44.39;99034.31;5036448;28;19923;-78
2023/09/26 04:08:55;;;;;;;;;;;;;;;24.56;43.81;99033.06;5035479;28;19975;-78
2023/09/26 04:11:21;;;;;;;;;;;;;;;24.47;43.68;99036.09;5036760;28;19968;-79
2023/09/26 04:13:46;;;;;;;;;;;;;;;24.33;43.69;99028.00;5035702;28;19928;-80
2023/09/26 04:16:11;;;;;;;;;;;;;;;24.26;43.76;99035.19;5035286;28;19925;-80
2023/09/26 04:18:37;;;;;;;;;;;;;;;24.17;43.93;99023.03;5035297;28;20383;-80
2023/09/26 04:21:03;;;;;;;;;;;;;;;24.12;43.88;99038.81;5034261;28;19917;-79
2023/09/26 04:23:28;;;;;;;;;;;;;;;24.08;43.79;99032.22;5034606;28;20304;-80
2023/09/26 04:25:54;;;;;;;;;;;;;;;24.09;43.64;99039.22;5017051;28;19918;-80
2023/09/26 04:28:19;;;;;;;;;;;;;;;24.27;43.23;99034.16;5017263;28;20032;-79
2023/09/26 04:30:44;;;;;;;;;;;;;;;24.42;42.76;99019.88;5035738;28;19924;-78
2023/09/26 04:33:10;;;;;;;;;;;;;;;24.48;42.76;99027.03;5018229;28;19917;-77
2023/09/26 04:35:35;;;;;;;;;;;;;;;24.69;42.51;99026.13;5035794;28;19917;-81
2023/09/26 04:38:00;;;;;;;;;;;;;;;25.07;41.76;99023.72;5033491;28;20299;-80
2023/09/26 04:40:26;;;;;;;;;;;;;;;25.25;41.59;99025.78;5017193;28;19921;-78
2023/09/26 04:42:52;;;;;;;;;;;;;;;25.18;41.34;99029.50;5034897;28;20368;-77
2023/09/26 04:45:17;;;;;;;;;;;;;;;25.17;41.59;99030.50;5017907;28;19956;-76
2023/09/26 04:47:42;;;;;;;;;;;;;;;25.07;41.43;99023.72;5034370;28;20017;-80
2023/09/26 04:50:08;;;;;;;;;;;;;;;25.05;41.45;99033.78;5034619;28;20008;-79
2023/09/26 04:52:33;;;;;;;;;;;;;;;25.01;41.57;99039.75;5017793;28;19917;-80
2023/09/26 04:54:59;;;;;;;;;;;;;;;24.97;41.32;99041.16;5034416;28;19972;-81
2023/09/26 04:57:24;;;;;;;;;;;;;;;24.95;41.46;99036.03;5017722;28;20019;-79
2023/09/26 04:59:49;;;;;;;;;;;;;;;24.96;41.32;99043.00;5033568;28;19921;-80
2023/09/26 05:02:15;;;;;;;;;;;;;;;24.98;41.55;99046.28;5033487;28;19917;-80
2023/09/26 05:04:41;;;;;;;;;;;;;;;25.01;41.37;99045.88;5034547;28;20414;-79
2023/09/26 05:07:07;;;;;;;;;;;;;;;25.05;41.12;99052.47;5033857;28;20402;-80
2023/09/26 05:09:33;;;;;;;;;;;;;;;25.05;41.22;99052.47;5033280;28;19920;-80
2023/09/26 05:11:58;;;;;;;;;;;;;;;25.10;41.20;99055.34;5034215;28;20380;-80
2023/09/26 05:14:23;;;;;;;;;;;;;;;25.32;40.56;99057.88;5033912;28;19960;-80
2023/09/26 05:16:49;;;;;;;;;;;;;;;25.73;40.13;99062.19;5034169;28;20067;-79
2023/09/26 05:19:15;;;;;;;;;;;;;;;26.22;38.94;99053.84;5033562;28;19917;-79
2023/09/26 05:21:41;;;;;;;;;;;;;;;26.80;38.17;99058.38;5033613;28;19940;-79
2023/09/26 05:24:07;;;;;;;;;;;;;;;27.25;37.32;99071.69;5033955;28;19917;-80
2023/09/26 05:26:33;;;;;;;;;;;;;;;27.78;36.50;99062.38;5033561;28;20431;-82
2023/09/26 05:28:58;;;;;;;;;;;;;;;28.27;35.68;99062.50;5017080;28;19917;-82
2023/09/26 05:31:23;;;;;;;;;;;;;;;29.08;34.36;99068.47;5036167;28;19924;-87
2023/09/26 05:33:52;;;;;;;;;;;;;;;29.81;32.97;99066.53;5017069;28;19970;-86
2023/09/26 05:36:17;;;;;;;;;;;;;;;30.92;30.93;99065.53;5033650;28;19935;-85
2023/09/26 05:38:42;;;;;;;;;;;;;;;31.70;29.40;99064.94;5034080;28;20007;-87
2023/09/26 05:41:08;;;;;;;;;;;;;;;32.32;28.43;99068.50;5036993;28;20015;-87
2023/09/26 05:43:33;;;;;;;;;;;;;;;32.39;28.43;99063.72;5018872;28;19974;-90
2023/09/26 05:45:59;;;;;;;;;;;;;;;32.96;27.72;99068.66;5044963;28;20289;-88
2023/09/26 05:48:25;;;;;;;;;;;;;;;33.55;26.84;99075.13;5020082;28;19917;-89
2023/09/26 05:50:57;;;;;;;;;;;;;;;33.84;26.59;99080.19;5006799;28;20301;-86
2023/09/26 05:53:22;;;;;;;;;;;;;;;33.79;26.14;99082.88;5030317;28;19963;-87
2023/09/26 05:55:50;;;;;;;;;;;;;;;33.75;26.29;99076.34;5016069;28;19921;-86
2023/09/26 05:58:16;;;;;;;;;;;;;;;33.87;26.02;99075.09;5010089;28;20016;-86
2023/09/26 06:00:43;;;;;;;;;;;;;;;33.63;26.80;99080.03;5015913;28;19984;-88
2023/09/26 06:03:09;;;;;;;;;;;;;;;33.06;27.20;99080.66;4998890;28;19928;-85
2023/09/26 06:05:36;;;;;;;;;;;;;;;32.98;27.30;99082.72;5025577;28;20285;-88
2023/09/26 06:08:01;;;;;;;;;;;;;;;33.16;27.56;99078.84;5040049;28;19917;-83
2023/09/26 06:10:26;;;;;;;;;;;;;;;33.24;27.83;99077.59;5032688;28;19925;-83
2023/09/26 06:12:52;;;;;;;;;;;;;;;33.82;26.93;99075.03;5015887;28;19917;-83
2023/09/26 06:15:18;;;;;;;;;;;;;;;34.10;25.80;99075.75;5016090;28;19921;-83
2023/09/26 06:17:43;;;;;;;;;;;;;;;34.65;25.53;99070.81;5017583;28;19925;-86
2023/09/26 06:20:09;;;;;;;;;;;;;;;35.05;25.35;99077.41;5033823;28;19974;-78
2023/09/26 06:22:34;;;;;;;;;;;;;;;35.44;24.62;99076.91;5032047;28;20352;-77
2023/09/26 06:25:02;;;;;;;;;;;;;;;35.69;23.96;99075.22;5016151;28;19917;-78
2023/09/26 06:27:27;;;;;;;;;;;;;;;35.90;23.88;99070.59;5032246;28;20455;-79
2023/09/26 06:29:52;;;;;;;;;;;;;;;36.11;23.48;99076.78;5032555;28;19971;-78
2023/09/26 06:32:18;;;;;;;;;;;;;;;36.23;23.40;99073.75;5032993;28;20347;-78
2023/09/26 06:34:44;;;;;;;;;;;;;;;36.33;23.40;99084.59;5022411;28;19917;-79
2023/09/26 06:37:10;;;;;;;;;;;;;;;36.60;23.08;99083.38;5046161;28;19975;-77
2023/09/26 06:39:36;;;;;;;;;;;;;;;36.76;22.52;99084.13;5044130;28;19917;-79
2023/09/26 06:42:02;;;;;;;;;;;;;;;36.85;22.28;99085.16;5045710;28;19970;-78
2023/09/26 06:44:28;;;;;;;;;;;;;;;37.05;22.25;99086.09;5046306;28;19928;-85
2023/09/26 06:46:54;;;;;;;;;;;;;;;37.19;22.52;99089.78;5051490;28;20375;-85
2023/09/26 06:49:19;;;;;;;;;;;;;;;37.44;22.43;99090.72;5022921;28;19924;-83
2023/09/26 06:51:45;;;;;;;;;;;;;;;37.42;22.27;99092.91;5041302;28;19917;-80
2023/09/26 06:54:10;;;;;;;;;;;;;;;37.41;22.49;99086.63;5030915;28;19917;-80
2023/09/26 06:56:35;;;;;;;;;;;;;;;37.24;22.82;99083.53;5038047;28;19916;-83
2023/09/26 06:59:01;;;;;;;;;;;;;;;36.92;23.03;99095.72;5035428;28;19917;-83
2023/09/26 07:01:26;;;;;;;;;;;;;;;36.37;23.36;99093.00;5036482;28;19921;-82
2023/09/26 07:03:51;;;;;;;;;;;;;;;36.38;23.52;99092.72;5034242;28;19917;-80
2023/09/26 07:06:17;;;;;;;;;;;;;;;35.84;24.13;99094.25;5032375;28;19925;-81
2023/09/26 07:08:43;;;;;;;;;;;;;;;35.20;25.09;99101.00;5032308;28;19918;-81
2023/09/26 07:11:09;;;;;;;;;;;;;;;34.72;25.42;99097.69;5015485;28;19976;-80
2023/09/26 07:13:34;;;;;;;;;;;;;;;34.24;26.28;99095.88;5014108;28;20403;-79
2023/09/26 07:16:00;;;;;;;;;;;;;;;33.98;27.30;99100.31;4995117;28;19964;-79
2023/09/26 07:18:25;;;;;;;;;;;;;;;33.72;27.31;99102.06;5010908;28;19976;-81
2023/09/26 07:20:51;;;;;;;;;;;;;;;33.48;27.44;99098.91;4995457;28;19918;-78
2023/09/26 07:23:16;;;;;;;;;;;;;;;33.37;27.50;99100.69;5012129;28;20016;-80
2023/09/26 07:25:42;;;;;;;;;;;;;;;33.26;28.00;99099.00;5001033;28;20067;-83
2023/09/26 07:28:07;;;;;;;;;;;;;;;33.25;28.41;99100.84;5019938;28;19921;-80
2023/09/26 07:30:32;;;;;;;;;;;;;;;33.39;28.22;99103.16;5020004;28;19918;-85
2023/09/26 07:32:58;;;;;;;;;;;;;;;33.76;27.90;99105.06;5002546;28;19925;-85
2023/09/26 07:35:25;;;;;;;;;;;;;;;33.28;28.62;99100.34;5021513;28;20008;-87
2023/09/26 07:37:51;;;;;;;;;;;;;;;33.04;29.21;99099.03;5020732;28;20072;-85
2023/09/26 07:40:16;;;;;;;;;;;;;;;32.80;28.34;99104.75;5020194;28;20012;-84
2023/09/26 07:42:41;;;;;;;;;;;;;;;32.56;28.86;99104.16;5020964;28;19917;-80
2023/09/26 07:45:07;;;;;;;;;;;;;;;32.67;28.95;99110.53;5017464;28;20004;-84
2023/09/26 07:47:32;;;;;;;;;;;;;;;32.84;28.38;99108.56;5018527;28;19918;-83
2023/09/26 07:49:58;;;;;;;;;;;;;;;32.75;28.59;99108.19;5031608;28;19925;-86
2023/09/26 07:52:26;;;;;;;;;;;;;;;33.76;27.97;99100.44;5022065;28;20347;-85
2023/09/26 07:54:51;;;;;;;;;;;;;;;33.56;27.84;99100.28;5038707;28;20384;-83
2023/09/26 07:57:17;;;;;;;;;;;;;;;33.32;26.93;99103.34;5021050;28;19921;-83
2023/09/26 07:59:42;;;;;;;;;;;;;;;33.61;27.54;99108.47;5023170;28;19917;-80
2023/09/26 08:02:07;;;;;;;;;;;;;;;33.51;27.09;99096.47;5043758;28;19917;-83
2023/09/26 08:04:32;;;;;;;;;;;;;;;33.77;26.79;99093.97;5023506;28;20428;-86
2023/09/26 08:06:58;;;;;;;;;;;;;;;33.48;27.03;99102.41;5046626;28;19923;-89
2023/09/26 08:09:23;;;;;;;;;;;;;;;33.85;27.16;99098.88;5041130;28;19917;-85
2023/09/26 08:11:48;;;;;;;;;;;;;;;33.66;26.59;99106.59;5041230;28;19925;-85
2023/09/26 08:14:14;;;;;;;;;;;;;;;33.41;26.94;99104.50;5024777;28;19917;-77
2023/09/26 08:16:39;;;;;;;;;;;;;;;33.66;26.61;99103.06;5038992;28;20312;-77
2023/09/26 08:19:04;;;;;;;;;;;;;;;33.35;27.04;99098.25;5037961;28;19921;-77
2023/09/26 08:21:29;;;;;;;;;;;;;;;33.08;27.50;99108.25;5037700;28;20037;-78
2023/09/26 08:23:55;;;;;;;;;;;;;;;32.87;27.28;99101.84;5037927;28;19920;-79
2023/09/26 08:26:22;;;;;;;;;;;;;;;32.72;27.39;99102.47;5038287;28;20392;-82
2023/09/26 08:28:47;;;;;;;;;;;;;;;33.03;27.16;99108.19;5020990;28;19921;-79
2023/09/26 08:31:15;;;;;;;;;;;;;;;32.80;27.20;99107.44;5037412;28;19924;-78
2023/09/26 08:33:41;;;;;;;;;;;;;;;32.50;27.56;99107.84;5021252;28;19921;-77
2023/09/26 08:36:13;;;;;;;;;;;;;;;32.35;27.57;99113.91;5035467;28;20097;-79
2023/09/26 08:38:39;;;;;;;;;;;;;;;32.23;27.83;99111.31;5034075;28;19918;-78
2023/09/26 08:41:05;;;;;;;;;;;;;;;32.37;27.72;99109.91;5018005;28;20280;-78
2023/09/26 08:43:30;;;;;;;;;;;;;;;33.11;26.79;99107.72;5035313;28;19952;-91
2023/09/26 08:45:56;;;;;;;;;;;;;;;33.79;25.47;99104.53;5018578;28;20368;-82
2023/09/26 08:48:23;;;;;;;;;;;;;;;34.11;24.37;99109.88;5035008;28;19917;-82
2023/09/26 08:50:48;;;;;;;;;;;;;;;34.73;24.24;99105.53;5021402;28;19928;-85
2023/09/26 08:53:14;;;;;;;;;;;;;;;35.20;23.34;99106.44;5018451;28;19993;-82
2023/09/26 08:55:39;;;;;;;;;;;;;;;35.58;22.68;99107.03;5034541;28;19917;-80
2023/09/26 08:58:05;;;;;;;;;;;;;;;35.90;22.70;99107.78;5033889;28;20285;-79
2023/09/26 09:00:30;;;;;;;;;;;;;;;36.30;22.12;99106.91;5017681;28;20304;-79
2023/09/26 09:02:55;;;;;;;;;;;;;;;36.66;21.42;99092.31;5017469;28;19990;-78
2023/09/26 09:05:21;;;;;;;;;;;;;;;36.98;20.86;99093.78;5034207;28;20350;-80
2023/09/26 09:07:47;;;;;;;;;;;;;;;37.22;20.33;99091.97;5033973;28;19924;-80
2023/09/26 09:10:12;;;;;;;;;;;;;;;37.26;20.66;99094.97;5033954;28;19967;-77
2023/09/26 09:12:41;;;;;;;;;;;;;;;36.68;21.62;99099.09;5033825;28;19921;-78
2023/09/26 09:15:15;;;;;;;;;;;;;;;36.84;21.44;99099.84;5034363;28;19917;-78
2023/09/26 09:17:44;;;;;;;;;;;;;;;36.61;21.64;99089.63;5033897;28;19917;-78
2023/09/26 09:20:10;;;;;;;;;;;;;;;35.93;22.12;99093.66;5033977;28;19924;-78
2023/09/26 09:22:35;;;;;;;;;;;;;;;35.48;22.71;99098.88;5035016;28;19918;-77
2023/09/26 09:25:01;;;;;;;;;;;;;;;35.23;23.00;99097.75;5017248;28;20311;-77
2023/09/26 09:27:30;;;;;;;;;;;;;;;35.50;22.81;99105.69;5033555;28;19987;-81
2023/09/26 09:30:02;;;;;;;;;;;;;;;35.04;23.20;99102.91;5033386;28;19917;-78
2023/09/26 09:32:27;;;;;;;;;;;;;;;34.76;23.21;99096.06;5033607;28;19964;-78
2023/09/26 09:34:53;;;;;;;;;;;;;;;34.42;23.77;99100.00;5033637;28;19924;-78
2023/09/26 09:37:19;;;;;;;;;;;;;;;34.21;24.02;99101.00;5033524;28;19921;-83
2023/09/26 09:39:46;;;;;;;;;;;;;;;33.92;24.27;99093.22;5036429;28;20011;-81
2023/09/26 09:42:12;;;;;;;;;;;;;;;33.78;25.00;99086.66;5033581;28;19917;-83
2023/09/26 09:44:37;;;;;;;;;;;;;;;34.48;24.13;99087.31;5034949;28;19924;-82
2023/09/26 09:47:03;;;;;;;;;;;;;;;34.59;23.92;99075.41;5017313;28;19917;-81
2023/09/26 09:49:30;;;;;;;;;;;;;;;34.64;24.14;99080.03;5017933;28;19917;-83
2023/09/26 09:51:57;;;;;;;;;;;;;;;34.40;24.48;99088.63;5016814;28;19925;-83
2023/09/26 09:54:22;;;;;;;;;;;;;;;34.41;24.59;99079.44;5015812;28;19917;-82
2023/09/26 09:56:48;;;;;;;;;;;;;;;34.16;24.46;99082.81;5016604;28;19917;-81
2023/09/26 09:59:14;;;;;;;;;;;;;;;33.99;25.31;99072.16;5016757;28;19917;-81
2023/09/26 10:01:44;;;;;;;;;;;;;;;33.94;25.25;99069.44;5016508;28;19916;-83
2023/09/26 10:04:09;;;;;;;;;;;;;;;34.36;24.89;99076.69;5032851;28;19924;-83
2023/09/26 10:06:35;;;;;;;;;;;;;;;34.49;24.64;99071.84;5033503;28;19917;-83
2023/09/26 10:09:03;;;;;;;;;;;;;;;34.61;24.72;99054.25;5016963;28;19917;-83
2023/09/26 10:11:29;;;;;;;;;;;;;;;34.68;24.14;99064.03;5016602;28;20396;-84
2023/09/26 10:13:54;;;;;;;;;;;;;;;34.30;24.71;99072.34;5033135;28;19924;-84
2023/09/26 10:16:20;;;;;;;;;;;;;;;34.19;24.87;99067.91;5033194;28;19952;-78
2023/09/26 10:18:46;;;;;;;;;;;;;;;34.36;24.84;99056.91;5017030;28;19917;-81
2023/09/26 10:21:25;;;;;;;;;;;;;;;34.45;24.71;99043.66;5016231;28;19917;-78
2023/09/26 10:24:05;;;;;;;;;;;;;;;33.98;24.47;99048.88;5032463;28;19917;-79
2023/09/26 10:26:36;;;;;;;;;;;;;;;33.26;25.84;99050.31;5033693;28;19917;-78
2023/09/26 10:29:11;;;;;;;;;;;;;;;33.16;25.92;99046.41;5032131;28;20402;-78
2023/09/26 10:31:41;;;;;;;;;;;;;;;33.14;25.92;99040.41;5015890;28;19948;-77
2023/09/26 10:34:06;;;;;;;;;;;;;;;33.14;25.83;99031.50;5016049;28;19917;-79
2023/09/26 10:36:31;;;;;;;;;;;;;;;32.95;26.31;99025.66;5032820;28;19923;-78
2023/09/26 10:39:00;;;;;;;;;;;;;;;32.98;26.11;99034.06;5031734;28;19928;-78
2023/09/26 10:41:25;;;;;;;;;;;;;;;32.95;26.24;99031.88;5032238;28;19940;-78
2023/09/26 10:43:51;;;;;;;;;;;;;;;32.96;26.08;99030.81;5032139;28;20380;-78
2023/09/26 10:46:16;;;;;;;;;;;;;;;32.90;26.33;99022.91;5032605;28;19917;-80
2023/09/26 10:48:41;;;;;;;;;;;;;;;32.78;26.29;99021.19;5032205;28;19921;-77
2023/09/26 10:51:07;;;;;;;;;;;;;;;32.76;26.64;99012.50;5032053;28;20372;-79
2023/09/26 10:53:32;;;;;;;;;;;;;;;32.85;26.73;99026.38;5015773;28;20351;-79
2023/09/26 10:55:57;;;;;;;;;;;;;;;32.73;26.73;99023.03;5032187;28;19999;-78
2023/09/26 10:58:23;;;;;;;;;;;;;;;32.56;26.87;99018.53;5015501;28;20066;-78
2023/09/26 11:00:51;;;;;;;;;;;;;;;32.56;27.01;99023.09;5014832;28;20147;-79
2023/09/26 11:03:16;;;;;;;;;;;;;;;32.59;27.04;99019.88;5015694;28;19917;-78
2023/09/26 11:05:42;;;;;;;;;;;;;;;32.66;26.79;99027.81;5032318;28;19923;-81
2023/09/26 11:08:07;;;;;;;;;;;;;;;32.70;26.90;99018.13;5014256;28;20505;-79
2023/09/26 11:10:32;;;;;;;;;;;;;;;32.73;26.56;99031.13;5014375;28;19928;-78
2023/09/26 11:12:58;;;;;;;;;;;;;;;32.63;26.70;99019.16;5032491;28;19960;-80
2023/09/26 11:15:25;;;;;;;;;;;;;;;32.58;26.51;99005.56;5032177;28;19940;-79
2023/09/26 11:17:50;;;;;;;;;;;;;;;32.43;26.62;98992.72;5031863;28;20384;-80
2023/09/26 11:20:15;;;;;;;;;;;;;;;32.28;26.58;99003.38;5015268;28;19924;-79
2023/09/26 11:22:47;;;;;;;;;;;;;;;32.31;26.42;99007.41;5015385;28;20354;-78
2023/09/26 11:25:13;;;;;;;;;;;;;;;31.92;26.66;98995.59;5031637;28;19923;-79
2023/09/26 11:27:42;;;;;;;;;;;;;;;31.86;26.43;98993.09;5014638;28;19918;-77
2023/09/26 11:30:17;;;;;;;;;;;;;;;31.83;26.79;98999.81;5031729;28;19992;-79
2023/09/26 11:32:50;;;;;;;;;;;;;;;31.92;26.73;98992.91;5015217;28;20277;-78
2023/09/26 11:35:19;;;;;;;;;;;;;;;31.82;27.05;98989.25;5031823;28;20269;-78
2023/09/26 11:37:47;;;;;;;;;;;;;;;31.78;27.24;98996.25;5031878;28;20415;-80
2023/09/26 11:40:18;;;;;;;;;;;;;;;31.91;27.21;98996.69;5031686;28;20058;-78
2023/09/26 11:42:45;;;;;;;;;;;;;;;32.01;27.21;98990.59;5015344;28;19917;-81
2023/09/26 11:45:18;;;;;;;;;;;;;;;31.99;27.67;98990.03;5031823;28;19919;-81
2023/09/26 11:47:43;;;;;;;;;;;;;;;31.99;27.74;98994.59;5031642;28;19924;-81
2023/09/26 11:50:09;;;;;;;;;;;;;;;32.04;27.72;98990.09;5014658;28;19917;-79
2023/09/26 11:52:34;;;;;;;;;;;;;;;32.08;27.80;98990.41;5031705;28;19953;-77
2023/09/26 11:55:00;;;;;;;;;;;;;;;32.16;27.25;98991.88;5031463;28;19917;-81
2023/09/26 11:57:26;;;;;;;;;;;;;;;32.10;27.02;98994.53;5031760;28;19917;-77
2023/09/26 11:59:51;;;;;;;;;;;;;;;31.87;26.84;98982.06;5032884;28;19917;-77
2023/09/26 12:02:16;;;;;;;;;;;;;;;31.85;26.78;98989.59;5031509;28;19983;-79
2023/09/26 12:04:42;;;;;;;;;;;;;;;31.74;27.19;98993.22;5031678;28;19917;-79
2023/09/26 12:07:08;;;;;;;;;;;;;;;31.68;27.20;98995.03;5031543;28;20360;-79
2023/09/26 12:09:33;;;;;;;;;;;;;;;31.65;26.99;98992.03;5031579;28;19965;-78
2023/09/26 12:11:58;;;;;;;;;;;;;;;31.59;27.24;98987.63;5016380;28;19960;-78
2023/09/26 12:14:24;;;;;;;;;;;;;;;31.58;27.62;98992.22;5018402;28;19961;-80
2023/09/26 12:16:51;;;;;;;;;;;;;;;31.53;27.24;98995.66;5036356;28;19924;-79
2023/09/26 12:19:19;;;;;;;;;;;;;;;31.60;27.18;98987.38;5036483;28;19917;-79
2023/09/26 12:21:45;;;;;;;;;;;;;;;31.61;27.19;98978.19;5035024;28;19917;-80
2023/09/26 12:24:10;;;;;;;;;;;;;;;31.66;27.07;98972.88;5034145;28;19924;-79
2023/09/26 12:26:37;;;;;;;;;;;;;;;31.71;27.07;98977.53;5018045;28;19975;-79
2023/09/26 12:29:04;;;;;;;;;;;;;;;31.71;26.97;98969.44;5034888;28;19991;-83
2023/09/26 12:31:29;;;;;;;;;;;;;;;31.46;26.30;98973.38;5018473;28;19917;-80
2023/09/26 12:33:55;;;;;;;;;;;;;;;31.29;26.62;98968.00;5017364;28;19917;-79
2023/09/26 12:36:20;;;;;;;;;;;;;;;31.36;26.69;98971.38;5017985;28;19917;-78
2023/09/26 12:38:46;;;;;;;;;;;;;;;31.42;26.69;98977.63;5034959;28;19944;-80
2023/09/26 12:41:11;;;;;;;;;;;;;;;31.40;26.99;98977.06;5018032;28;19969;-78